Time;durP1;ratioP1;P1;durP2;ratioP2;P2;SDS_P1;SDS_P2;PMS_P1;PMS_P2;Temp;Humidity;BMP_temperature;BMP_pressure;BME280_temperature;BME280_humidity;BME280_pressure;Samples;Min_cycle;Max_cycle;Signal;HPM_P1;HPM_P2
2023/08/26 00:02:03;;;;;;;2.72;1.20;;;20.60;99.90;;;;;;5010585;28;20512;-52
2023/08/26 00:04:29;;;;;;;6.07;1.60;;;20.70;99.90;;;;;;5012383;28;20104;-51
2023/08/26 00:06:55;;;;;;;4.40;1.88;;;20.70;99.90;;;;;;5010706;28;20072;-48
2023/08/26 00:09:21;;;;;;;34.80;21.92;;;20.70;99.90;;;;;;5011921;28;20034;-54
2023/08/26 00:11:48;;;;;;;15.10;9.70;;;20.70;99.90;;;;;;5012067;28;20400;-51
2023/08/26 00:14:14;;;;;;;2.03;0.93;;;20.60;99.90;;;;;;5011984;28;20532;-51
2023/08/26 00:16:39;;;;;;;1.83;0.80;;;20.60;99.90;;;;;;5011936;28;20108;-49
2023/08/26 00:19:05;;;;;;;3.85;1.00;;;20.50;99.90;;;;;;5010443;28;20022;-55
2023/08/26 00:21:31;;;;;;;2.72;1.02;;;20.50;99.90;;;;;;5010630;28;20493;-52
2023/08/26 00:23:58;;;;;;;3.63;1.27;;;20.40;99.90;;;;;;5011132;28;20022;-48
2023/08/26 00:26:24;;;;;;;1.30;1.20;;;20.30;99.90;;;;;;5010946;28;20547;-49
2023/08/26 00:28:49;;;;;;;4.38;1.20;;;20.30;99.90;;;;;;5010501;28;20029;-51
2023/08/26 00:31:15;;;;;;;3.10;1.10;;;20.20;99.90;;;;;;5010468;28;20457;-49
2023/08/26 00:33:41;;;;;;;8.60;1.40;;;20.20;99.90;;;;;;5010616;28;20481;-50
2023/08/26 00:36:06;;;;;;;4.53;1.25;;;20.20;99.90;;;;;;5010791;28;20544;-49
2023/08/26 00:38:32;;;;;;;2.70;1.30;;;20.20;99.90;;;;;;5010445;28;20112;-50
2023/08/26 00:40:58;;;;;;;1.42;1.33;;;20.20;99.90;;;;;;4994130;28;20033;-52
2023/08/26 00:43:27;;;;;;;1.63;1.25;;;20.20;99.90;;;;;;5011821;28;20053;-50
2023/08/26 00:45:52;;;;;;;3.00;1.20;;;20.20;99.90;;;;;;5010066;28;20030;-48
2023/08/26 00:48:19;;;;;;;1.63;1.40;;;20.30;99.90;;;;;;5012644;28;20104;-51
2023/08/26 00:50:47;;;;;;;1.95;1.40;;;20.30;99.90;;;;;;5014115;28;20022;-51
2023/08/26 00:53:14;;;;;;;6.10;2.15;;;20.30;99.90;;;;;;5014191;28;20026;-49
2023/08/26 00:55:41;;;;;;;5.00;1.80;;;20.30;99.90;;;;;;5014493;28;20044;-54
2023/08/26 00:58:07;;;;;;;8.00;2.53;;;20.20;99.90;;;;;;5014020;28;20026;-51
2023/08/26 01:00:35;;;;;;;2.33;1.80;;;20.20;99.90;;;;;;5013953;28;20025;-50
2023/08/26 01:03:01;;;;;;;4.80;1.95;;;20.10;99.90;;;;;;5014089;28;20022;-54
2023/08/26 01:05:28;;;;;;;4.78;1.90;;;20.20;99.90;;;;;;5014111;28;20489;-50
2023/08/26 01:07:54;;;;;;;3.75;1.55;;;20.10;99.90;;;;;;5013724;28;20037;-50
2023/08/26 01:10:28;;;;;;;5.03;1.85;;;20.10;99.90;;;;;;5014046;28;20018;-48
2023/08/26 01:13:00;;;;;;;4.93;2.17;;;20.10;99.90;;;;;;4998421;28;20150;-48
2023/08/26 01:15:28;;;;;;;5.13;2.10;;;20.10;99.90;;;;;;5013771;28;20464;-50
2023/08/26 01:17:54;;;;;;;2.35;1.80;;;20.10;99.90;;;;;;5013728;28;20401;-47
2023/08/26 01:20:20;;;;;;;2.97;1.90;;;20.10;99.90;;;;;;5013510;28;20025;-50
2023/08/26 01:22:48;;;;;;;3.15;2.20;;;20.10;99.90;;;;;;5014887;28;20114;-55
2023/08/26 01:25:15;;;;;;;4.70;2.30;;;20.00;99.90;;;;;;5013802;28;20036;-49
2023/08/26 01:27:41;;;;;;;3.35;2.42;;;20.00;99.90;;;;;;5013386;28;20029;-50
2023/08/26 01:30:08;;;;;;;2.28;1.92;;;19.90;99.90;;;;;;5013358;28;20021;-53
2023/08/26 01:32:47;;;;;;;3.67;2.60;;;19.90;99.90;;;;;;5013620;28;20022;-51
2023/08/26 01:35:22;;;;;;;8.02;2.78;;;19.90;99.90;;;;;;5013496;28;20034;-54
2023/08/26 01:37:48;;;;;;;4.17;2.97;;;19.90;99.90;;;;;;5013300;28;20272;-52
2023/08/26 01:40:15;;;;;;;4.47;2.45;;;19.90;99.90;;;;;;5013041;28;20026;-53
2023/08/26 01:42:42;;;;;;;6.45;2.35;;;20.00;99.90;;;;;;4997092;28;20037;-48
2023/08/26 01:45:11;;;;;;;3.80;2.70;;;19.90;99.90;;;;;;5013285;28;20441;-49
2023/08/26 01:47:37;;;;;;;5.35;2.83;;;19.90;99.90;;;;;;5012575;28;20057;-51
2023/08/26 01:50:03;;;;;;;7.35;2.90;;;20.00;99.90;;;;;;5013050;28;20442;-49
2023/08/26 01:52:28;;;;;;;3.95;2.70;;;20.00;99.90;;;;;;5013021;28;20382;-53
2023/08/26 01:54:54;;;;;;;5.75;3.10;;;20.00;99.90;;;;;;5013120;28;20481;-51
2023/08/26 01:57:19;;;;;;;3.67;2.63;;;20.00;99.90;;;;;;5013025;28;20099;-52
2023/08/26 01:59:46;;;;;;;6.65;2.85;;;20.00;99.90;;;;;;5013328;28;20065;-50
2023/08/26 02:02:12;;;;;;;8.27;3.90;;;20.10;99.90;;;;;;5012699;28;20033;-52
2023/08/26 02:04:37;;;;;;;6.55;3.50;;;20.10;99.90;;;;;;5014340;28;20031;-51
2023/08/26 02:07:03;;;;;;;5.55;3.80;;;20.10;99.90;;;;;;5013026;28;20025;-50
2023/08/26 02:09:29;;;;;;;6.28;3.53;;;20.10;99.90;;;;;;5013055;28;20091;-54
2023/08/26 02:11:54;;;;;;;6.75;3.20;;;20.10;99.90;;;;;;5012609;28;20028;-52
2023/08/26 02:14:20;;;;;;;9.80;3.75;;;20.10;99.90;;;;;;5013927;28;20493;-50
2023/08/26 02:16:46;;;;;;;4.13;3.72;;;20.10;99.90;;;;;;4996367;28;20018;-53
2023/08/26 02:19:11;;;;;;;7.30;4.88;;;20.10;99.90;;;;;;5012328;28;20026;-52
2023/08/26 02:21:37;;;;;;;10.15;3.97;;;20.10;99.90;;;;;;5013634;28;20053;-50
2023/08/26 02:24:02;;;;;;;5.72;3.67;;;20.20;99.90;;;;;;5012459;28;20489;-52
2023/08/26 02:26:28;;;;;;;7.32;4.40;;;20.20;99.90;;;;;;5012441;28;20025;-49
2023/08/26 02:28:54;;;;;;;7.80;4.55;;;20.20;99.90;;;;;;5012572;28;20100;-52
2023/08/26 02:31:20;;;;;;;5.07;4.30;;;20.20;99.90;;;;;;5013375;28;20440;-54
2023/08/26 02:33:45;;;;;;;8.55;4.50;;;20.30;99.90;;;;;;5013575;28;20058;-48
2023/08/26 02:36:11;;;;;;;9.25;4.70;;;20.30;99.90;;;;;;5012248;28;20080;-53
2023/08/26 02:38:37;;;;;;;7.97;4.80;;;20.20;99.90;;;;;;4995884;28;20117;-53
2023/08/26 02:41:02;;;;;;;10.40;5.20;;;20.20;99.90;;;;;;5011953;28;20120;-51
2023/08/26 02:43:28;;;;;;;10.18;5.15;;;20.20;99.90;;;;;;5012007;28;20028;-51
2023/08/26 02:45:58;;;;;;;6.65;4.75;;;20.10;99.90;;;;;;5011724;28;20112;-49
2023/08/26 02:48:25;;;;;;;7.43;5.65;;;20.10;99.90;;;;;;5011957;28;20057;-49
2023/08/26 02:50:58;;;;;;;7.93;5.30;;;20.00;99.90;;;;;;5011737;28;20064;-52
2023/08/26 02:53:25;;;;;;;7.18;4.88;;;20.00;99.90;;;;;;5011882;28;20033;-50
2023/08/26 02:55:51;;;;;;;9.93;5.80;;;20.00;99.90;;;;;;5012030;28;20044;-52
2023/08/26 02:58:17;;;;;;;12.13;5.82;;;20.00;99.90;;;;;;5011684;28;20581;-48
2023/08/26 03:00:42;;;;;;;8.40;5.72;;;19.90;99.90;;;;;;4995427;28;20028;-50
2023/08/26 03:03:08;;;;;;;9.85;5.43;;;19.90;99.90;;;;;;5011994;28;20022;-49
2023/08/26 03:05:34;;;;;;;7.55;5.55;;;20.00;99.90;;;;;;5011605;28;20049;-52
2023/08/26 03:08:00;;;;;;;7.13;5.63;;;20.00;99.90;;;;;;5011565;28;20081;-51
2023/08/26 03:10:25;;;;;;;8.85;6.90;;;20.00;99.90;;;;;;5011612;28;20022;-49
2023/08/26 03:12:51;;;;;;;9.98;5.45;;;20.00;99.90;;;;;;5011570;28;20022;-54
2023/08/26 03:15:16;;;;;;;9.55;6.10;;;20.00;99.90;;;;;;5012972;28;20030;-51
2023/08/26 03:17:42;;;;;;;14.95;6.60;;;20.00;99.90;;;;;;5011311;28;20029;-48
2023/08/26 03:20:09;;;;;;;14.18;6.90;;;20.00;99.90;;;;;;5011301;28;20022;-53
2023/08/26 03:22:34;;;;;;;10.85;6.03;;;20.00;99.90;;;;;;5011574;28;20504;-49
2023/08/26 03:25:00;;;;;;;10.23;6.15;;;20.00;99.90;;;;;;5011319;28;20113;-53
2023/08/26 03:27:25;;;;;;;10.63;5.78;;;20.00;99.90;;;;;;5011079;28;20026;-51
2023/08/26 03:29:51;;;;;;;12.77;5.90;;;20.00;99.90;;;;;;5011006;28;20109;-49
2023/08/26 03:32:16;;;;;;;8.32;5.85;;;19.90;99.90;;;;;;5012650;28;20547;-48
2023/08/26 03:34:42;;;;;;;10.50;6.07;;;19.90;99.90;;;;;;5011198;28;20465;-49
2023/08/26 03:37:08;;;;;;;13.52;5.78;;;19.90;99.90;;;;;;5011103;28;20025;-50
2023/08/26 03:39:34;;;;;;;9.20;5.40;;;19.90;99.90;;;;;;5011079;28;20041;-52
2023/08/26 03:41:59;;;;;;;6.18;5.07;;;19.90;99.90;;;;;;5012097;28;20033;-48
2023/08/26 03:44:25;;;;;;;9.88;5.00;;;19.90;99.90;;;;;;5010864;28;20033;-48
2023/08/26 03:46:51;;;;;;;6.80;4.68;;;19.90;99.90;;;;;;4994323;28;20033;-49
2023/08/26 03:49:16;;;;;;;13.15;5.78;;;19.90;99.90;;;;;;5010931;28;20026;-51
2023/08/26 03:51:42;;;;;;;8.95;4.70;;;19.90;99.90;;;;;;5010935;28;20087;-51
2023/08/26 03:54:07;;;;;;;11.13;4.80;;;19.90;99.90;;;;;;5010793;28;20389;-48
2023/08/26 03:56:33;;;;;;;9.40;4.90;;;19.90;99.90;;;;;;5010914;28;20026;-48
2023/08/26 03:58:58;;;;;;;6.20;4.15;;;19.80;99.90;;;;;;5010766;28;20342;-47
2023/08/26 04:01:24;;;;;;;6.90;4.30;;;19.80;99.90;;;;;;5010726;28;20306;-48
2023/08/26 04:03:53;;;;;;;9.65;4.85;;;19.80;99.90;;;;;;5010836;28;20589;-48
2023/08/26 04:06:19;;;;;;;14.88;5.65;;;19.70;99.90;;;;;;5010923;28;20026;-50
2023/08/26 04:08:45;;;;;;;10.00;4.65;;;19.60;99.90;;;;;;5010755;28;20026;-49
2023/08/26 04:11:11;;;;;;;6.20;4.28;;;19.60;99.90;;;;;;5010569;28;20018;-50
2023/08/26 04:13:37;;;;;;;12.60;4.43;;;19.50;99.90;;;;;;5010642;28;20145;-52
2023/08/26 04:16:03;;;;;;;7.53;4.45;;;19.50;99.90;;;;;;5010563;28;20485;-52
2023/08/26 04:18:30;;;;;;;12.25;5.22;;;19.40;99.90;;;;;;5010372;28;20397;-49
2023/08/26 04:20:56;;;;;;;10.45;4.32;;;19.40;99.90;;;;;;5010264;28;20440;-53
2023/08/26 04:23:22;;;;;;;15.55;5.05;;;19.40;99.90;;;;;;5010071;28;20026;-57
2023/08/26 04:25:49;;;;;;;10.40;4.10;;;19.40;99.90;;;;;;5011764;28;20022;-51
2023/08/26 04:28:15;;;;;;;18.02;5.55;;;19.40;99.90;;;;;;5010257;28;20405;-51
2023/08/26 04:30:41;;;;;;;6.13;4.00;;;19.40;99.90;;;;;;5010500;28;20072;-49
2023/08/26 04:33:06;;;;;;;10.55;4.13;;;19.40;99.90;;;;;;5010613;28;20018;-51
2023/08/26 04:35:33;;;;;;;9.43;4.28;;;19.30;99.90;;;;;;5010499;28;20025;-56
2023/08/26 04:38:00;;;;;;;8.95;3.58;;;19.40;99.90;;;;;;5010522;28;20021;-52
2023/08/26 04:40:25;;;;;;;8.38;4.13;;;19.30;99.90;;;;;;5010051;28;20033;-48
2023/08/26 04:42:51;;;;;;;6.10;3.72;;;19.30;99.90;;;;;;5010420;28;20025;-48
2023/08/26 04:45:17;;;;;;;10.18;3.80;;;19.30;99.90;;;;;;5011786;28;20109;-53
2023/08/26 04:47:43;;;;;;;9.30;3.80;;;19.20;99.90;;;;;;5009651;28;20075;-50
2023/08/26 04:50:11;;;;;;;5.55;3.25;;;19.20;99.90;;;;;;5010128;28;20109;-49
2023/08/26 04:52:38;;;;;;;6.93;3.65;;;19.20;99.90;;;;;;4994409;28;20449;-53
2023/08/26 04:55:04;;;;;;;8.27;3.08;;;19.10;99.90;;;;;;5010302;28;20398;-48
2023/08/26 04:57:29;;;;;;;8.38;4.07;;;19.10;99.90;;;;;;4994017;28;20030;-52
2023/08/26 04:59:55;;;;;;;5.80;3.20;;;19.10;99.90;;;;;;5010262;28;20033;-52
2023/08/26 05:02:20;;;;;;;20.42;3.17;;;19.00;99.90;;;;;;5010028;28;20030;-51
2023/08/26 05:04:46;;;;;;;4.78;3.00;;;19.00;99.90;;;;;;5010090;28;20389;-50
2023/08/26 05:07:12;;;;;;;5.68;2.78;;;19.00;99.90;;;;;;5010038;28;20057;-51
2023/08/26 05:09:37;;;;;;;9.80;2.95;;;19.00;99.90;;;;;;4977722;28;20018;-53
2023/08/26 05:12:03;;;;;;;6.00;2.60;;;19.00;99.90;;;;;;5011359;28;20050;-49
2023/08/26 05:14:29;;;;;;;11.25;3.25;;;19.00;99.90;;;;;;5011527;28;20544;-51
2023/08/26 05:16:54;;;;;;;5.68;2.63;;;19.00;99.90;;;;;;5010092;28;20478;-51
2023/08/26 05:19:20;;;;;;;3.83;2.40;;;19.10;99.90;;;;;;5009912;28;20026;-54
2023/08/26 05:21:45;;;;;;;5.50;2.33;;;19.10;99.90;;;;;;5010050;28;20029;-51
2023/08/26 05:24:11;;;;;;;3.45;2.25;;;19.30;99.90;;;;;;5010105;28;20022;-51
2023/08/26 05:26:37;;;;;;;4.82;2.15;;;19.30;99.90;;;;;;5009891;28;20034;-51
2023/08/26 05:29:04;;;;;;;6.90;2.20;;;19.40;99.90;;;;;;5011202;28;20113;-49
2023/08/26 05:31:29;;;;;;;2.63;1.80;;;19.40;99.90;;;;;;5010016;28;20394;-47
2023/08/26 05:33:55;;;;;;;2.30;1.75;;;19.30;99.90;;;;;;5010057;28;20029;-49
2023/08/26 05:36:21;;;;;;;8.45;2.17;;;19.30;99.90;;;;;;5013589;28;20022;-49
2023/08/26 05:38:47;;;;;;;3.15;1.85;;;19.10;99.90;;;;;;5013438;28;20029;-50
2023/08/26 05:41:13;;;;;;;5.43;1.80;;;19.00;99.90;;;;;;5015021;28;20112;-48
2023/08/26 05:43:38;;;;;;;6.00;2.25;;;19.00;99.90;;;;;;5013442;28;20030;-54
2023/08/26 05:46:04;;;;;;;5.43;1.90;;;19.00;99.90;;;;;;5013079;28;20033;-52
2023/08/26 05:48:29;;;;;;;6.53;1.85;;;18.90;99.90;;;;;;5013776;28;20034;-55
2023/08/26 05:50:59;;;;;;;4.90;2.08;;;18.90;99.90;;;;;;5013091;28;20473;-52
2023/08/26 05:53:27;;;;;;;3.75;1.90;;;18.90;99.90;;;;;;5013135;28;20022;-52
2023/08/26 05:55:52;;;;;;;6.63;1.80;;;18.90;99.90;;;;;;5013176;28;20025;-50
2023/08/26 05:58:18;;;;;;;2.72;1.63;;;18.90;99.90;;;;;;5012935;28;20564;-54
2023/08/26 06:00:44;;;;;;;3.60;1.48;;;18.90;99.90;;;;;;5012898;28;20081;-52
2023/08/26 06:03:09;;;;;;;5.07;1.77;;;18.90;99.90;;;;;;5013109;28;20057;-52
2023/08/26 06:05:35;;;;;;;3.42;1.40;;;18.90;99.90;;;;;;5012922;28;20033;-51
2023/08/26 06:08:00;;;;;;;2.97;1.23;;;18.60;99.90;;;;;;5012834;28;20033;-51
2023/08/26 06:10:26;;;;;;;3.83;1.35;;;18.80;99.90;;;;;;5012587;28;20076;-51
2023/08/26 06:12:51;;;;;;;1.50;0.98;;;18.70;99.90;;;;;;5014694;28;20474;-54
2023/08/26 06:15:17;;;;;;;1.42;1.35;;;18.70;99.90;;;;;;5012980;28;20036;-50
2023/08/26 06:17:43;;;;;;;5.35;1.27;;;18.70;99.90;;;;;;5014038;28;20444;-50
2023/08/26 06:20:09;;;;;;;4.88;1.33;;;18.70;99.90;;;;;;4996370;28;20038;-54
2023/08/26 06:22:35;;;;;;;2.58;1.73;;;18.70;99.90;;;;;;5012674;28;20489;-55
2023/08/26 06:25:00;;;;;;;4.68;1.35;;;18.60;99.90;;;;;;4996507;28;20037;-51
2023/08/26 06:27:27;;;;;;;4.95;1.17;;;18.70;99.90;;;;;;5012230;28;20022;-57
2023/08/26 06:29:58;;;;;;;3.63;1.73;;;18.70;99.90;;;;;;5012756;28;20088;-54
2023/08/26 06:32:24;;;;;;;2.53;1.05;;;18.80;99.90;;;;;;5012418;28;20041;-54
2023/08/26 06:34:49;;;;;;;5.60;1.40;;;18.80;99.90;;;;;;5012559;28;20559;-50
2023/08/26 06:37:15;;;;;;;3.13;1.08;;;18.80;99.90;;;;;;5012394;28;20544;-53
2023/08/26 06:39:40;;;;;;;1.30;1.10;;;18.80;99.90;;;;;;5012302;28;20398;-53
2023/08/26 06:42:06;;;;;;;3.50;1.15;;;18.90;99.90;;;;;;5013472;28;20101;-49
2023/08/26 06:44:32;;;;;;;1.65;1.13;;;18.70;99.90;;;;;;4996156;28;20022;-49
2023/08/26 06:46:58;;;;;;;7.85;1.90;;;18.80;99.90;;;;;;5011635;28;20030;-52
2023/08/26 06:49:24;;;;;;;4.40;1.40;;;18.70;99.90;;;;;;5012233;28;20057;-50
2023/08/26 06:51:49;;;;;;;1.38;1.27;;;18.70;99.90;;;;;;5012097;28;20058;-52
2023/08/26 06:54:15;;;;;;;3.05;1.45;;;18.60;99.90;;;;;;5012189;28;20022;-54
2023/08/26 06:56:44;;;;;;;3.60;1.40;;;18.60;99.90;;;;;;5012394;28;20041;-52
2023/08/26 06:59:09;;;;;;;2.05;1.33;;;18.70;99.90;;;;;;5012120;28;20442;-54
2023/08/26 07:01:36;;;;;;;3.38;1.27;;;18.80;99.90;;;;;;5013195;28;20114;-53
2023/08/26 07:04:05;;;;;;;2.17;1.42;;;18.80;99.90;;;;;;5012083;28;20483;-54
2023/08/26 07:06:31;;;;;;;4.07;1.58;;;19.00;99.90;;;;;;5013300;28;20482;-50
2023/08/26 07:08:57;;;;;;;3.90;1.45;;;19.00;99.90;;;;;;5011851;28;20033;-50
2023/08/26 07:11:22;;;;;;;4.05;1.10;;;19.00;99.90;;;;;;5012516;28;20500;-51
2023/08/26 07:13:48;;;;;;;1.67;1.17;;;19.00;99.90;;;;;;5012086;28;20436;-51
2023/08/26 07:16:14;;;;;;;4.00;1.33;;;19.00;99.90;;;;;;5011926;28;20025;-48
2023/08/26 07:18:39;;;;;;;4.43;1.40;;;19.00;99.90;;;;;;5013053;28;20282;-49
2023/08/26 07:21:05;;;;;;;1.85;1.55;;;19.00;99.90;;;;;;5012831;28;20022;-48
2023/08/26 07:23:32;;;;;;;2.45;1.33;;;19.00;99.90;;;;;;5011847;28;20029;-50
2023/08/26 07:25:57;;;;;;;3.65;1.58;;;19.00;99.90;;;;;;5013061;28;20449;-50
2023/08/26 07:28:23;;;;;;;4.20;1.45;;;19.00;99.90;;;;;;5011444;28;20061;-48
2023/08/26 07:30:51;;;;;;;7.22;1.73;;;19.00;99.90;;;;;;5012874;28;20021;-52
2023/08/26 07:33:16;;;;;;;2.97;1.50;;;19.00;99.90;;;;;;5011751;28;20653;-50
2023/08/26 07:35:42;;;;;;;2.58;1.65;;;18.90;99.90;;;;;;5012667;28;20026;-49
2023/08/26 07:38:07;;;;;;;1.88;1.38;;;19.00;99.90;;;;;;5011524;28;20044;-51
2023/08/26 07:40:33;;;;;;;4.90;1.50;;;19.00;99.90;;;;;;5008020;28;20034;-53
2023/08/26 07:42:59;;;;;;;3.20;2.00;;;19.00;99.90;;;;;;5001729;28;20468;-56
2023/08/26 07:45:24;;;;;;;10.32;1.52;;;19.00;99.90;;;;;;5011311;28;20481;-51
2023/08/26 07:47:51;;;;;;;5.18;1.38;;;19.10;99.90;;;;;;4992758;28;20397;-51
2023/08/26 07:50:16;;;;;;;2.42;1.60;;;19.10;99.90;;;;;;5008758;28;20077;-53
2023/08/26 07:52:42;;;;;;;4.38;1.45;;;19.50;99.90;;;;;;5012648;28;20437;-50
2023/08/26 07:55:08;;;;;;;5.07;1.55;;;19.90;99.90;;;;;;5026850;28;20057;-51
2023/08/26 07:57:33;;;;;;;2.70;1.40;;;20.20;99.90;;;;;;5010052;28;20030;-51
2023/08/26 07:59:59;;;;;;;2.60;1.27;;;20.50;99.90;;;;;;5010950;28;20029;-52
2023/08/26 08:02:25;;;;;;;4.93;1.60;;;21.40;99.90;;;;;;5010671;28;20112;-50
2023/08/26 08:04:50;;;;;;;4.32;1.38;;;22.40;99.90;;;;;;5011135;28;20481;-52
2023/08/26 08:07:16;;;;;;;2.88;1.10;;;23.40;99.90;;;;;;5010378;28;20486;-53
2023/08/26 08:09:41;;;;;;;1.35;1.13;;;23.40;99.90;;;;;;5010303;28;20026;-52
2023/08/26 08:12:09;;;;;;;2.83;1.40;;;23.40;99.90;;;;;;5010667;28;20030;-49
2023/08/26 08:14:34;;;;;;;2.88;0.90;;;23.30;99.90;;;;;;5010935;28;20430;-52
2023/08/26 08:17:00;;;;;;;1.70;1.30;;;23.20;99.90;;;;;;5011060;28;20233;-54
2023/08/26 08:19:26;;;;;;;2.17;1.45;;;23.10;99.90;;;;;;5010448;28;20026;-53
2023/08/26 08:21:51;;;;;;;13.57;1.75;;;22.80;99.90;;;;;;5010438;28;20051;-54
2023/08/26 08:24:17;;;;;;;4.13;1.35;;;22.50;99.90;;;;;;5011731;28;20030;-52
2023/08/26 08:26:43;;;;;;;5.00;1.25;;;22.30;99.90;;;;;;4993786;28;20022;-55
2023/08/26 08:29:13;;;;;;;5.95;1.33;;;22.20;99.90;;;;;;4994155;28;20389;-55
2023/08/26 08:31:38;;;;;;;2.40;1.15;;;22.30;99.90;;;;;;5010224;28;20026;-49
2023/08/26 08:34:04;;;;;;;2.78;1.15;;;22.30;99.90;;;;;;5010661;28;20625;-51
2023/08/26 08:36:30;;;;;;;5.00;1.15;;;22.10;99.90;;;;;;5011781;28;20095;-50
2023/08/26 08:38:59;;;;;;;4.68;1.25;;;21.90;99.90;;;;;;5010160;28;20080;-51
2023/08/26 08:41:24;;;;;;;2.05;1.60;;;21.80;99.90;;;;;;4994203;28;20501;-53
2023/08/26 08:43:54;;;;;;;2.28;1.10;;;21.50;99.90;;;;;;5011913;28;20026;-52
2023/08/26 08:46:21;;;;;;;5.25;1.70;;;21.30;99.90;;;;;;4995401;28;20076;-49
2023/08/26 08:48:46;;;;;;;3.33;1.35;;;21.10;99.90;;;;;;4994432;28;20501;-54
2023/08/26 08:51:13;;;;;;;3.22;1.00;;;21.00;99.90;;;;;;5010119;28;20061;-47
2023/08/26 08:53:47;;;;;;;1.38;1.13;;;21.10;99.90;;;;;;5002896;28;20022;-54
2023/08/26 08:56:16;;;;;;;4.50;0.98;;;21.00;99.90;;;;;;5009845;28;20554;-53
2023/08/26 08:58:47;;;;;;;2.40;1.25;;;21.00;99.90;;;;;;5009825;28;20029;-52
2023/08/26 09:01:15;;;;;;;2.88;1.15;;;21.10;99.90;;;;;;4991958;28;20026;-51
2023/08/26 09:03:41;;;;;;;3.03;1.10;;;21.10;99.90;;;;;;5008697;28;20486;-56
2023/08/26 09:06:07;;;;;;;5.60;1.33;;;21.20;99.90;;;;;;5009484;28;20037;-54
2023/08/26 09:08:33;;;;;;;1.13;0.93;;;21.30;99.90;;;;;;5010676;28;20018;-58
2023/08/26 09:10:58;;;;;;;2.33;0.88;;;21.30;99.90;;;;;;5013637;28;20018;-53
2023/08/26 09:13:24;;;;;;;1.33;0.90;;;21.20;99.90;;;;;;5029975;28;20167;-51
2023/08/26 09:15:50;;;;;;;6.28;1.20;;;21.20;99.90;;;;;;5030868;28;20029;-50
2023/08/26 09:18:18;;;;;;;2.03;0.95;;;21.20;99.90;;;;;;5031969;28;20494;-51
2023/08/26 09:20:46;;;;;;;3.20;1.05;;;21.40;99.90;;;;;;5015414;28;20394;-51
2023/08/26 09:23:12;;;;;;;2.58;1.08;;;21.40;99.90;;;;;;5015024;28;20065;-55
2023/08/26 09:25:38;;;;;;;1.13;1.02;;;21.40;99.90;;;;;;5015133;28;20033;-53
2023/08/26 09:28:04;;;;;;;5.22;1.08;;;21.50;99.90;;;;;;5016077;28;20033;-52
2023/08/26 09:30:30;;;;;;;0.88;0.75;;;21.60;99.90;;;;;;5014766;28;20022;-54
2023/08/26 09:32:56;;;;;;;2.10;0.90;;;21.60;99.90;;;;;;5014904;28;20026;-55
2023/08/26 09:35:22;;;;;;;1.23;1.10;;;21.60;99.90;;;;;;5014926;28;20379;-55
2023/08/26 09:37:56;;;;;;;1.10;1.00;;;21.70;99.90;;;;;;5015299;28;20033;-55
2023/08/26 09:40:21;;;;;;;5.78;1.10;;;21.80;99.90;;;;;;4998926;28;20033;-52
2023/08/26 09:42:47;;;;;;;7.22;3.15;;;21.80;99.90;;;;;;5002519;28;20400;-54
2023/08/26 09:45:17;;;;;;;20.92;13.95;;;21.80;99.90;;;;;;5012362;28;20321;-49
2023/08/26 09:47:46;;;;;;;65.63;44.10;;;21.90;99.90;;;;;;5014606;28;20093;-58
2023/08/26 09:50:12;;;;;;;6.63;1.73;;;21.90;99.90;;;;;;5012927;28;20030;-49
2023/08/26 09:52:46;;;;;;;1.95;0.90;;;21.90;99.90;;;;;;5014293;28;20033;-55
2023/08/26 09:55:12;;;;;;;2.77;0.93;;;21.90;99.90;;;;;;5012128;28;20045;-54
2023/08/26 09:57:38;;;;;;;6.82;1.38;;;21.90;99.90;;;;;;5011300;28;20265;-60
2023/08/26 10:00:08;;;;;;;4.65;2.00;;;21.80;99.90;;;;;;5027490;28;20030;-59
2023/08/26 10:02:37;;;;;;;4.40;2.20;;;21.70;99.90;;;;;;5011770;28;20034;-56
2023/08/26 10:05:07;;;;;;;4.10;1.73;;;21.60;99.90;;;;;;5011639;28;20041;-59
2023/08/26 10:07:33;;;;;;;10.20;4.47;;;21.60;99.90;;;;;;5010814;28;20030;-58
2023/08/26 10:10:14;;;;;;;6.05;3.47;;;21.70;99.90;;;;;;5009991;28;20026;-53
2023/08/26 10:12:43;;;;;;;4.53;1.83;;;21.80;99.90;;;;;;5011571;28;20399;-55
2023/08/26 10:15:12;;;;;;;1.35;1.23;;;21.90;99.90;;;;;;5010939;28;20018;-55
2023/08/26 10:17:42;;;;;;;2.95;1.00;;;21.90;99.90;;;;;;5012316;28;20022;-61
2023/08/26 10:20:09;;;;;;;3.00;1.75;;;22.20;99.90;;;;;;5011289;28;20041;-58
2023/08/26 10:22:36;;;;;;;3.10;1.00;;;22.30;99.90;;;;;;5011984;28;20402;-61
2023/08/26 10:25:03;;;;;;;3.40;1.13;;;22.50;99.90;;;;;;5011142;28;20133;-60
2023/08/26 10:27:28;;;;;;;1.67;1.10;;;22.70;99.90;;;;;;5011366;28;20165;-65
2023/08/26 10:29:55;;;;;;;3.40;1.02;;;22.90;99.90;;;;;;5011703;28;20461;-64
2023/08/26 10:32:22;;;;;;;3.47;1.17;;;23.00;99.90;;;;;;5011710;28;20053;-62
2023/08/26 10:34:56;;;;;;;1.15;0.80;;;22.80;99.90;;;;;;5011341;28;20048;-61
2023/08/26 10:37:31;;;;;;;0.90;0.90;;;22.90;99.90;;;;;;5011318;28;20663;-54
2023/08/26 10:40:03;;;;;;;2.25;1.95;;;22.90;99.90;;;;;;5011079;28;20494;-58
2023/08/26 10:42:29;;;;;;;33.05;24.48;;;22.90;99.90;;;;;;5027909;28;20030;-58
2023/08/26 10:44:56;;;;;;;3.72;1.55;;;22.90;99.90;;;;;;5011805;28;20497;-50
2023/08/26 10:47:50;;;;;;;3.67;1.10;;;22.90;99.90;;;;;;5012763;28;20037;-50
2023/08/26 10:50:22;;;;;;;1.20;0.90;;;22.80;99.90;;;;;;5011009;28;20033;-51
2023/08/26 10:53:22;;;;;;;0.60;0.60;;;22.70;99.90;;;;;;5012827;28;20106;-50
2023/08/26 10:55:54;;;;;;;4.03;1.13;;;22.60;99.90;;;;;;5010774;28;20401;-53
2023/08/26 10:58:40;;;;;;;1.90;1.10;;;22.50;99.90;;;;;;5006182;28;20141;-52
2023/08/26 11:01:06;;;;;;;4.22;0.80;;;22.50;99.90;;;;;;4992759;28;20485;-51
2023/08/26 11:03:37;;;;;;;3.25;0.80;;;22.50;99.90;;;;;;5011180;28;20226;-51
2023/08/26 11:06:04;;;;;;;0.93;0.75;;;22.50;99.90;;;;;;5011549;28;20453;-49
2023/08/26 11:08:30;;;;;;;1.95;0.80;;;22.40;99.90;;;;;;5012179;28;20041;-53
2023/08/26 11:10:56;;;;;;;1.83;0.98;;;22.40;99.90;;;;;;5026865;28;20026;-52
2023/08/26 11:13:22;;;;;;;1.20;0.98;;;22.30;99.90;;;;;;5010680;28;20512;-57
2023/08/26 11:15:50;;;;;;;1.05;0.95;;;22.20;99.90;;;;;;4991414;28;20022;-51
2023/08/26 11:18:16;;;;;;;0.75;0.70;;;22.00;99.90;;;;;;4996830;28;20036;-50
2023/08/26 11:20:43;;;;;;;0.95;0.95;;;21.90;99.90;;;;;;5011603;28;20045;-50
2023/08/26 11:23:09;;;;;;;1.55;0.70;;;21.90;99.90;;;;;;4994123;28;20021;-49
2023/08/26 11:25:36;;;;;;;1.80;1.00;;;22.00;99.90;;;;;;5009536;28;20022;-50
2023/08/26 11:28:10;;;;;;;1.65;0.60;;;22.10;99.90;;;;;;5011632;28;20062;-52
2023/08/26 11:30:45;;;;;;;1.13;0.83;;;22.30;99.90;;;;;;5026940;28;20021;-51
2023/08/26 11:33:15;;;;;;;1.75;0.80;;;22.50;99.90;;;;;;5009664;28;20025;-52
2023/08/26 11:35:42;;;;;;;2.35;0.95;;;22.50;99.90;;;;;;5010193;28;20113;-51
2023/08/26 11:38:08;;;;;;;2.40;0.90;;;22.60;99.90;;;;;;5009986;28;20061;-52
2023/08/26 11:40:37;;;;;;;1.55;0.85;;;22.70;99.90;;;;;;5010050;28;20046;-53
2023/08/26 11:43:10;;;;;;;1.95;1.00;;;22.80;99.70;;;;;;5026830;28;20084;-52
2023/08/26 11:45:38;;;;;;;3.63;0.75;;;22.70;99.60;;;;;;5026632;28;20030;-53
2023/08/26 11:48:04;;;;;;;2.83;1.08;;;22.70;99.60;;;;;;5027127;28;20030;-52
2023/08/26 11:50:31;;;;;;;1.15;0.88;;;22.60;99.20;;;;;;5010078;28;20069;-53
2023/08/26 11:53:00;;;;;;;6.30;1.20;;;22.50;99.80;;;;;;5010028;28;20022;-51
2023/08/26 11:55:28;;;;;;;1.63;0.80;;;22.50;99.80;;;;;;5010157;28;20022;-51
2023/08/26 11:57:54;;;;;;;1.70;0.80;;;22.50;99.90;;;;;;5010264;28;20156;-52
2023/08/26 12:00:21;;;;;;;2.65;0.93;;;22.50;99.90;;;;;;5009778;28;20121;-49
2023/08/26 12:02:51;;;;;;;1.73;0.77;;;22.50;99.90;;;;;;5011786;28;20080;-50
2023/08/26 12:05:17;;;;;;;2.08;0.68;;;22.50;99.90;;;;;;5009460;28;20160;-53
2023/08/26 12:07:50;;;;;;;2.17;1.10;;;22.50;99.90;;;;;;5009464;28;20397;-53
2023/08/26 12:10:17;;;;;;;2.30;0.90;;;22.70;99.90;;;;;;5009519;28;20029;-55
2023/08/26 12:12:45;;;;;;;70.10;46.35;;;22.80;99.90;;;;;;5011387;28;20478;-54
2023/08/26 12:15:16;;;;;;;4.88;3.78;;;22.80;99.90;;;;;;5011087;28;20028;-55
2023/08/26 12:17:46;;;;;;;0.70;0.70;;;22.80;99.90;;;;;;5009627;28;20501;-50
2023/08/26 12:20:25;;;;;;;3.75;1.13;;;22.80;99.90;;;;;;5009562;28;20561;-50
2023/08/26 12:22:52;;;;;;;1.20;0.90;;;22.80;99.60;;;;;;5009624;28;20041;-50
2023/08/26 12:25:25;;;;;;;0.93;0.80;;;22.80;99.90;;;;;;5009329;28;20022;-50
2023/08/26 12:27:52;;;;;;;2.33;1.15;;;22.70;99.90;;;;;;5010982;28;20132;-53
2023/08/26 12:30:19;;;;;;;1.60;0.80;;;22.80;99.30;;;;;;5010472;28;20022;-50
2023/08/26 12:32:46;;;;;;;5.85;0.70;;;22.80;98.20;;;;;;5009502;28;20379;-49
2023/08/26 12:35:12;;;;;;;0.70;0.70;;;22.80;99.20;;;;;;5009089;28;20034;-49
2023/08/26 12:37:38;;;;;;;0.90;0.63;;;22.90;99.60;;;;;;5025956;28;20525;-53
2023/08/26 12:40:04;;;;;;;1.52;0.73;;;22.90;99.60;;;;;;5025953;28;20030;-60
2023/08/26 12:42:33;;;;;;;2.22;0.73;;;22.90;98.60;;;;;;5010257;28;20497;-57
2023/08/26 12:45:00;;;;;;;5.65;1.73;;;22.90;98.70;;;;;;5012705;28;20030;-55